sensor_id;sensor_type;location;lat;lon;timestamp;temperature;humidity
21163;DHT22;10739;52.198;20.908;2023-09-18T00:00:04;18.20;99.90
21163;DHT22;10739;52.198;20.908;2023-09-18T00:02:35;18.20;99.90
21163;DHT22;10739;52.198;20.908;2023-09-18T00:05:01;18.20;99.90
21163;DHT22;10739;52.198;20.908;2023-09-18T00:07:27;18.20;99.90
21163;DHT22;10739;52.198;20.908;2023-09-18T00:09:54;18.10;99.90
21163;DHT22;10739;52.198;20.908;2023-09-18T00:12:20;18.10;99.90
21163;DHT22;10739;52.198;20.908;2023-09-18T00:14:50;18.00;99.90
21163;DHT22;10739;52.198;20.908;2023-09-18T00:17:16;18.00;99.90
21163;DHT22;10739;52.198;20.908;2023-09-18T00:19:43;17.90;99.90
21163;DHT22;10739;52.198;20.908;2023-09-18T00:22:09;17.90;99.90
21163;DHT22;10739;52.198;20.908;2023-09-18T00:24:35;17.90;99.90
21163;DHT22;10739;52.198;20.908;2023-09-18T00:27:01;17.80;99.90
21163;DHT22;10739;52.198;20.908;2023-09-18T00:29:28;17.80;99.90
21163;DHT22;10739;52.198;20.908;2023-09-18T00:31:54;17.70;99.90
21163;DHT22;10739;52.198;20.908;2023-09-18T00:34:20;17.60;99.90
21163;DHT22;10739;52.198;20.908;2023-09-18T00:36:46;17.60;99.90
21163;DHT22;10739;52.198;20.908;2023-09-18T00:39:12;17.50;99.90
21163;DHT22;10739;52.198;20.908;2023-09-18T00:41:40;17.50;99.90
21163;DHT22;10739;52.198;20.908;2023-09-18T00:44:06;17.40;99.90
21163;DHT22;10739;52.198;20.908;2023-09-18T00:46:33;17.30;99.90
21163;DHT22;10739;52.198;20.908;2023-09-18T00:49:01;17.30;99.90
21163;DHT22;10739;52.198;20.908;2023-09-18T00:51:28;17.30;99.90
21163;DHT22;10739;52.198;20.908;2023-09-18T00:53:55;17.20;99.90
21163;DHT22;10739;52.198;20.908;2023-09-18T00:56:21;17.20;99.90
21163;DHT22;10739;52.198;20.908;2023-09-18T00:58:47;17.20;99.90
21163;DHT22;10739;52.198;20.908;2023-09-18T01:01:16;17.10;99.90
21163;DHT22;10739;52.198;20.908;2023-09-18T01:03:52;17.20;99.90
21163;DHT22;10739;52.198;20.908;2023-09-18T01:06:19;17.20;99.90
21163;DHT22;10739;52.198;20.908;2023-09-18T01:08:47;17.20;99.90
21163;DHT22;10739;52.198;20.908;2023-09-18T01:14:58;17.20;99.90
21163;DHT22;10739;52.198;20.908;2023-09-18T01:17:28;17.20;99.90
21163;DHT22;10739;52.198;20.908;2023-09-18T01:19:56;17.20;99.90
21163;DHT22;10739;52.198;20.908;2023-09-18T01:22:22;17.20;99.90
21163;DHT22;10739;52.198;20.908;2023-09-18T01:24:49;17.20;99.90
21163;DHT22;10739;52.198;20.908;2023-09-18T01:27:17;17.20;99.90
21163;DHT22;10739;52.198;20.908;2023-09-18T01:29:46;17.10;99.90
21163;DHT22;10739;52.198;20.908;2023-09-18T01:32:14;17.20;99.90
21163;DHT22;10739;52.198;20.908;2023-09-18T01:34:45;17.20;99.90
21163;DHT22;10739;52.198;20.908;2023-09-18T01:37:16;17.10;99.90
21163;DHT22;10739;52.198;20.908;2023-09-18T01:39:50;17.10;99.90
21163;DHT22;10739;52.198;20.908;2023-09-18T01:42:17;17.00;99.90
21163;DHT22;10739;52.198;20.908;2023-09-18T01:44:45;17.00;99.90
21163;DHT22;10739;52.198;20.908;2023-09-18T01:47:16;17.00;99.90
21163;DHT22;10739;52.198;20.908;2023-09-18T01:49:44;17.00;99.90
21163;DHT22;10739;52.198;20.908;2023-09-18T01:52:12;17.00;99.90
21163;DHT22;10739;52.198;20.908;2023-09-18T01:54:38;17.00;99.90
21163;DHT22;10739;52.198;20.908;2023-09-18T01:57:05;17.10;99.90
21163;DHT22;10739;52.198;20.908;2023-09-18T01:59:33;17.10;99.90
21163;DHT22;10739;52.198;20.908;2023-09-18T02:02:00;17.10;99.90
21163;DHT22;10739;52.198;20.908;2023-09-18T02:04:29;17.10;99.90
21163;DHT22;10739;52.198;20.908;2023-09-18T02:06:57;17.10;99.90
21163;DHT22;10739;52.198;20.908;2023-09-18T02:09:26;17.20;99.90
21163;DHT22;10739;52.198;20.908;2023-09-18T02:11:52;17.20;99.90
21163;DHT22;10739;52.198;20.908;2023-09-18T02:14:18;17.30;99.90
21163;DHT22;10739;52.198;20.908;2023-09-18T02:16:45;17.30;99.90
21163;DHT22;10739;52.198;20.908;2023-09-18T02:19:13;17.30;99.90
21163;DHT22;10739;52.198;20.908;2023-09-18T02:21:40;17.30;99.90
21163;DHT22;10739;52.198;20.908;2023-09-18T02:24:07;17.30;99.90
21163;DHT22;10739;52.198;20.908;2023-09-18T02:26:34;17.30;99.90
21163;DHT22;10739;52.198;20.908;2023-09-18T02:29:04;17.30;99.90
21163;DHT22;10739;52.198;20.908;2023-09-18T02:31:32;17.40;99.90
21163;DHT22;10739;52.198;20.908;2023-09-18T02:33:58;17.30;99.90
21163;DHT22;10739;52.198;20.908;2023-09-18T02:36:24;17.30;99.90
21163;DHT22;10739;52.198;20.908;2023-09-18T02:38:51;17.30;99.90
21163;DHT22;10739;52.198;20.908;2023-09-18T02:41:22;17.40;99.90
21163;DHT22;10739;52.198;20.908;2023-09-18T02:43:53;17.40;99.90
21163;DHT22;10739;52.198;20.908;2023-09-18T02:46:22;17.40;99.90
21163;DHT22;10739;52.198;20.908;2023-09-18T02:48:52;17.40;99.90
21163;DHT22;10739;52.198;20.908;2023-09-18T02:51:19;17.40;99.90
21163;DHT22;10739;52.198;20.908;2023-09-18T02:53:46;17.40;99.90
21163;DHT22;10739;52.198;20.908;2023-09-18T02:56:13;17.50;99.90
21163;DHT22;10739;52.198;20.908;2023-09-18T02:58:40;17.60;99.90
21163;DHT22;10739;52.198;20.908;2023-09-18T03:01:07;17.60;99.90
21163;DHT22;10739;52.198;20.908;2023-09-18T03:03:34;17.70;99.90
21163;DHT22;10739;52.198;20.908;2023-09-18T03:06:01;17.70;99.90
21163;DHT22;10739;52.198;20.908;2023-09-18T03:08:28;17.70;99.90
21163;DHT22;10739;52.198;20.908;2023-09-18T03:10:55;17.60;99.90
21163;DHT22;10739;52.198;20.908;2023-09-18T03:13:22;17.60;99.90
21163;DHT22;10739;52.198;20.908;2023-09-18T03:15:48;17.70;99.90
21163;DHT22;10739;52.198;20.908;2023-09-18T03:18:14;17.60;99.90
21163;DHT22;10739;52.198;20.908;2023-09-18T03:20:40;17.60;99.90
21163;DHT22;10739;52.198;20.908;2023-09-18T03:23:07;17.60;99.90
21163;DHT22;10739;52.198;20.908;2023-09-18T03:25:33;17.60;99.90
21163;DHT22;10739;52.198;20.908;2023-09-18T03:27:59;17.60;99.90
21163;DHT22;10739;52.198;20.908;2023-09-18T03:30:26;17.60;99.90
21163;DHT22;10739;52.198;20.908;2023-09-18T03:32:52;17.60;99.90
21163;DHT22;10739;52.198;20.908;2023-09-18T03:35:20;17.60;99.90
21163;DHT22;10739;52.198;20.908;2023-09-18T03:37:51;17.50;99.90
21163;DHT22;10739;52.198;20.908;2023-09-18T03:40:19;17.50;99.90
21163;DHT22;10739;52.198;20.908;2023-09-18T03:42:46;17.50;99.90
21163;DHT22;10739;52.198;20.908;2023-09-18T03:45:13;17.50;99.90
21163;DHT22;10739;52.198;20.908;2023-09-18T03:47:41;17.40;99.90
21163;DHT22;10739;52.198;20.908;2023-09-18T03:50:08;17.40;99.90
21163;DHT22;10739;52.198;20.908;2023-09-18T03:52:36;17.40;99.90
21163;DHT22;10739;52.198;20.908;2023-09-18T03:55:02;17.40;99.90
21163;DHT22;10739;52.198;20.908;2023-09-18T03:57:29;17.40;99.90
21163;DHT22;10739;52.198;20.908;2023-09-18T03:59:55;17.40;99.90
21163;DHT22;10739;52.198;20.908;2023-09-18T04:02:24;17.40;99.90
21163;DHT22;10739;52.198;20.908;2023-09-18T04:04:51;17.40;99.90
21163;DHT22;10739;52.198;20.908;2023-09-18T04:07:18;17.40;99.90
21163;DHT22;10739;52.198;20.908;2023-09-18T04:09:45;17.30;99.90
21163;DHT22;10739;52.198;20.908;2023-09-18T04:12:12;17.30;99.90
21163;DHT22;10739;52.198;20.908;2023-09-18T04:14:39;17.30;99.90
21163;DHT22;10739;52.198;20.908;2023-09-18T04:17:06;17.30;99.90
21163;DHT22;10739;52.198;20.908;2023-09-18T04:19:32;17.30;99.90
21163;DHT22;10739;52.198;20.908;2023-09-18T04:21:58;17.30;99.90
21163;DHT22;10739;52.198;20.908;2023-09-18T04:24:25;17.40;99.90
21163;DHT22;10739;52.198;20.908;2023-09-18T04:26:52;17.30;99.90
21163;DHT22;10739;52.198;20.908;2023-09-18T04:29:19;17.30;99.90
21163;DHT22;10739;52.198;20.908;2023-09-18T04:31:45;17.30;99.90
21163;DHT22;10739;52.198;20.908;2023-09-18T04:34:12;17.30;99.90
21163;DHT22;10739;52.198;20.908;2023-09-18T04:36:39;17.30;99.90
21163;DHT22;10739;52.198;20.908;2023-09-18T04:39:05;17.30;99.90
21163;DHT22;10739;52.198;20.908;2023-09-18T04:41:32;17.30;99.90
21163;DHT22;10739;52.198;20.908;2023-09-18T04:43:59;17.30;99.90
21163;DHT22;10739;52.198;20.908;2023-09-18T04:46:26;17.30;99.90
21163;DHT22;10739;52.198;20.908;2023-09-18T04:48:52;17.30;99.90
21163;DHT22;10739;52.198;20.908;2023-09-18T04:51:18;17.30;99.90
21163;DHT22;10739;52.198;20.908;2023-09-18T04:53:44;17.30;99.90
21163;DHT22;10739;52.198;20.908;2023-09-18T04:56:10;17.40;99.90
21163;DHT22;10739;52.198;20.908;2023-09-18T04:58:37;17.40;99.90
21163;DHT22;10739;52.198;20.908;2023-09-18T05:01:04;17.40;99.90
21163;DHT22;10739;52.198;20.908;2023-09-18T05:03:35;17.40;99.90
21163;DHT22;10739;52.198;20.908;2023-09-18T05:06:02;17.40;99.90
21163;DHT22;10739;52.198;20.908;2023-09-18T05:08:31;17.40;99.90
21163;DHT22;10739;52.198;20.908;2023-09-18T05:10:57;17.40;99.90
21163;DHT22;10739;52.198;20.908;2023-09-18T05:13:24;17.40;99.90
21163;DHT22;10739;52.198;20.908;2023-09-18T05:15:50;17.50;99.90
21163;DHT22;10739;52.198;20.908;2023-09-18T05:18:16;17.50;99.90
21163;DHT22;10739;52.198;20.908;2023-09-18T05:20:42;17.50;99.90
21163;DHT22;10739;52.198;20.908;2023-09-18T05:23:09;17.60;99.90
21163;DHT22;10739;52.198;20.908;2023-09-18T05:25:35;17.60;99.90
21163;DHT22;10739;52.198;20.908;2023-09-18T05:28:04;17.60;99.90
21163;DHT22;10739;52.198;20.908;2023-09-18T05:30:33;17.60;99.90
21163;DHT22;10739;52.198;20.908;2023-09-18T05:33:02;17.60;99.90
21163;DHT22;10739;52.198;20.908;2023-09-18T05:35:35;17.70;99.90
21163;DHT22;10739;52.198;20.908;2023-09-18T05:38:12;17.70;99.90
21163;DHT22;10739;52.198;20.908;2023-09-18T05:40:39;17.70;99.90
21163;DHT22;10739;52.198;20.908;2023-09-18T05:43:06;17.70;99.90
21163;DHT22;10739;52.198;20.908;2023-09-18T05:45:33;17.70;99.90
21163;DHT22;10739;52.198;20.908;2023-09-18T05:48:00;17.80;99.90
21163;DHT22;10739;52.198;20.908;2023-09-18T05:50:34;17.80;99.90
21163;DHT22;10739;52.198;20.908;2023-09-18T05:53:04;17.80;99.90
21163;DHT22;10739;52.198;20.908;2023-09-18T05:55:31;17.90;99.90
21163;DHT22;10739;52.198;20.908;2023-09-18T05:58:01;17.90;99.90
21163;DHT22;10739;52.198;20.908;2023-09-18T06:00:30;18.00;99.90
21163;DHT22;10739;52.198;20.908;2023-09-18T06:02:56;18.00;99.90
21163;DHT22;10739;52.198;20.908;2023-09-18T06:05:24;18.00;99.90
21163;DHT22;10739;52.198;20.908;2023-09-18T06:07:51;18.10;99.90
21163;DHT22;10739;52.198;20.908;2023-09-18T06:10:17;18.10;99.90
21163;DHT22;10739;52.198;20.908;2023-09-18T06:12:44;18.10;99.90
21163;DHT22;10739;52.198;20.908;2023-09-18T06:15:11;18.30;99.90
21163;DHT22;10739;52.198;20.908;2023-09-18T06:17:39;18.30;99.90
21163;DHT22;10739;52.198;20.908;2023-09-18T06:20:07;18.40;99.90
21163;DHT22;10739;52.198;20.908;2023-09-18T06:22:43;18.50;99.90
21163;DHT22;10739;52.198;20.908;2023-09-18T06:25:10;18.60;99.90
21163;DHT22;10739;52.198;20.908;2023-09-18T06:27:37;18.70;99.90
21163;DHT22;10739;52.198;20.908;2023-09-18T06:30:04;18.70;99.90
21163;DHT22;10739;52.198;20.908;2023-09-18T06:32:32;18.80;99.90
21163;DHT22;10739;52.198;20.908;2023-09-18T06:35:01;19.00;99.90
21163;DHT22;10739;52.198;20.908;2023-09-18T06:37:27;19.10;99.90
21163;DHT22;10739;52.198;20.908;2023-09-18T06:39:54;19.30;99.90
21163;DHT22;10739;52.198;20.908;2023-09-18T06:42:22;19.50;99.90
21163;DHT22;10739;52.198;20.908;2023-09-18T06:44:49;19.70;99.90
21163;DHT22;10739;52.198;20.908;2023-09-18T06:47:15;20.30;99.90
21163;DHT22;10739;52.198;20.908;2023-09-18T06:49:42;21.20;99.90
21163;DHT22;10739;52.198;20.908;2023-09-18T06:52:09;22.00;99.90
21163;DHT22;10739;52.198;20.908;2023-09-18T06:54:36;22.30;99.90
21163;DHT22;10739;52.198;20.908;2023-09-18T06:57:03;22.50;99.90
21163;DHT22;10739;52.198;20.908;2023-09-18T06:59:35;23.00;99.90
21163;DHT22;10739;52.198;20.908;2023-09-18T07:02:05;23.70;99.90
21163;DHT22;10739;52.198;20.908;2023-09-18T07:04:32;24.00;99.90
21163;DHT22;10739;52.198;20.908;2023-09-18T07:06:59;24.30;99.90
21163;DHT22;10739;52.198;20.908;2023-09-18T07:09:28;25.00;99.90
21163;DHT22;10739;52.198;20.908;2023-09-18T07:11:54;25.30;99.90
21163;DHT22;10739;52.198;20.908;2023-09-18T07:14:21;25.90;99.90
21163;DHT22;10739;52.198;20.908;2023-09-18T07:16:47;25.60;99.90
21163;DHT22;10739;52.198;20.908;2023-09-18T07:19:13;25.60;99.90
21163;DHT22;10739;52.198;20.908;2023-09-18T07:21:45;25.60;99.90
21163;DHT22;10739;52.198;20.908;2023-09-18T07:24:12;25.50;99.90
21163;DHT22;10739;52.198;20.908;2023-09-18T07:26:47;25.80;99.90
21163;DHT22;10739;52.198;20.908;2023-09-18T07:29:14;26.10;99.90
21163;DHT22;10739;52.198;20.908;2023-09-18T07:31:44;26.10;99.90
21163;DHT22;10739;52.198;20.908;2023-09-18T07:34:11;26.10;99.90
21163;DHT22;10739;52.198;20.908;2023-09-18T07:36:39;26.70;99.90
21163;DHT22;10739;52.198;20.908;2023-09-18T07:39:06;26.90;99.90
21163;DHT22;10739;52.198;20.908;2023-09-18T07:41:32;26.70;99.90
21163;DHT22;10739;52.198;20.908;2023-09-18T07:43:58;26.70;99.90
21163;DHT22;10739;52.198;20.908;2023-09-18T07:46:25;26.70;99.90
21163;DHT22;10739;52.198;20.908;2023-09-18T07:48:51;26.30;99.90
21163;DHT22;10739;52.198;20.908;2023-09-18T07:51:17;25.80;99.90
21163;DHT22;10739;52.198;20.908;2023-09-18T07:53:44;25.60;99.90
21163;DHT22;10739;52.198;20.908;2023-09-18T07:56:10;25.50;99.90
21163;DHT22;10739;52.198;20.908;2023-09-18T07:58:37;25.40;99.90
21163;DHT22;10739;52.198;20.908;2023-09-18T08:01:05;25.50;99.90
21163;DHT22;10739;52.198;20.908;2023-09-18T08:03:32;25.40;99.90
21163;DHT22;10739;52.198;20.908;2023-09-18T08:05:58;25.50;99.90
21163;DHT22;10739;52.198;20.908;2023-09-18T08:08:25;25.70;99.90
21163;DHT22;10739;52.198;20.908;2023-09-18T08:10:52;25.80;99.90
21163;DHT22;10739;52.198;20.908;2023-09-18T08:13:19;26.00;99.90
21163;DHT22;10739;52.198;20.908;2023-09-18T08:15:46;26.10;99.90
21163;DHT22;10739;52.198;20.908;2023-09-18T08:18:12;26.40;99.90
21163;DHT22;10739;52.198;20.908;2023-09-18T08:20:45;27.10;99.90
21163;DHT22;10739;52.198;20.908;2023-09-18T08:23:11;27.80;99.90
21163;DHT22;10739;52.198;20.908;2023-09-18T08:25:38;27.80;99.90
21163;DHT22;10739;52.198;20.908;2023-09-18T08:28:06;28.20;99.90
21163;DHT22;10739;52.198;20.908;2023-09-18T08:30:32;28.70;99.90
21163;DHT22;10739;52.198;20.908;2023-09-18T08:32:59;28.70;99.90
21163;DHT22;10739;52.198;20.908;2023-09-18T08:35:25;28.90;99.90
21163;DHT22;10739;52.198;20.908;2023-09-18T08:37:55;29.30;99.60
21163;DHT22;10739;52.198;20.908;2023-09-18T08:40:23;29.00;99.40
21163;DHT22;10739;52.198;20.908;2023-09-18T08:42:52;28.90;99.80
21163;DHT22;10739;52.198;20.908;2023-09-18T08:45:25;29.10;99.70
21163;DHT22;10739;52.198;20.908;2023-09-18T08:47:59;29.70;99.10
21163;DHT22;10739;52.198;20.908;2023-09-18T08:50:27;29.70;98.50
21163;DHT22;10739;52.198;20.908;2023-09-18T08:52:55;30.40;98.10
21163;DHT22;10739;52.198;20.908;2023-09-18T08:55:29;30.40;97.50
21163;DHT22;10739;52.198;20.908;2023-09-18T08:57:58;30.20;97.60
21163;DHT22;10739;52.198;20.908;2023-09-18T09:00:26;30.30;97.30
21163;DHT22;10739;52.198;20.908;2023-09-18T09:02:53;30.40;97.20
21163;DHT22;10739;52.198;20.908;2023-09-18T09:05:23;30.40;96.80
21163;DHT22;10739;52.198;20.908;2023-09-18T09:07:50;31.00;95.90
21163;DHT22;10739;52.198;20.908;2023-09-18T09:10:17;31.20;95.80
21163;DHT22;10739;52.198;20.908;2023-09-18T09:12:51;30.80;95.60
21163;DHT22;10739;52.198;20.908;2023-09-18T09:15:23;31.30;95.20
21163;DHT22;10739;52.198;20.908;2023-09-18T09:18:01;31.30;95.00
21163;DHT22;10739;52.198;20.908;2023-09-18T09:20:29;31.00;94.70
21163;DHT22;10739;52.198;20.908;2023-09-18T09:23:01;31.00;94.90
21163;DHT22;10739;52.198;20.908;2023-09-18T09:25:30;31.10;94.40
21163;DHT22;10739;52.198;20.908;2023-09-18T09:28:04;31.20;93.80
21163;DHT22;10739;52.198;20.908;2023-09-18T09:30:34;31.50;93.20
21163;DHT22;10739;52.198;20.908;2023-09-18T09:33:04;30.90;93.50
21163;DHT22;10739;52.198;20.908;2023-09-18T09:35:33;30.80;93.40
21163;DHT22;10739;52.198;20.908;2023-09-18T09:38:11;31.20;93.00
21163;DHT22;10739;52.198;20.908;2023-09-18T09:40:40;31.60;92.90
21163;DHT22;10739;52.198;20.908;2023-09-18T09:43:09;31.50;92.30
21163;DHT22;10739;52.198;20.908;2023-09-18T09:45:37;31.10;92.60
21163;DHT22;10739;52.198;20.908;2023-09-18T09:48:06;30.90;93.20
21163;DHT22;10739;52.198;20.908;2023-09-18T09:50:34;31.20;93.00
21163;DHT22;10739;52.198;20.908;2023-09-18T09:53:12;31.60;91.80
21163;DHT22;10739;52.198;20.908;2023-09-18T09:55:40;31.70;90.70
21163;DHT22;10739;52.198;20.908;2023-09-18T09:58:09;31.50;91.00
21163;DHT22;10739;52.198;20.908;2023-09-18T10:00:43;31.00;91.80
21163;DHT22;10739;52.198;20.908;2023-09-18T10:03:18;30.40;92.50
21163;DHT22;10739;52.198;20.908;2023-09-18T10:05:50;30.60;92.60
21163;DHT22;10739;52.198;20.908;2023-09-18T10:08:23;30.60;92.40
21163;DHT22;10739;52.198;20.908;2023-09-18T10:10:54;30.10;92.80
21163;DHT22;10739;52.198;20.908;2023-09-18T10:14:02;29.50;93.90
21163;DHT22;10739;52.198;20.908;2023-09-18T10:16:35;29.10;93.50
21163;DHT22;10739;52.198;20.908;2023-09-18T10:19:40;28.60;93.80
21163;DHT22;10739;52.198;20.908;2023-09-18T10:22:19;28.50;94.20
21163;DHT22;10739;52.198;20.908;2023-09-18T10:24:59;28.20;94.00
21163;DHT22;10739;52.198;20.908;2023-09-18T10:27:33;27.80;94.00
21163;DHT22;10739;52.198;20.908;2023-09-18T10:30:06;27.70;94.20
21163;DHT22;10739;52.198;20.908;2023-09-18T10:32:38;27.50;94.50
21163;DHT22;10739;52.198;20.908;2023-09-18T10:35:07;27.40;95.00
21163;DHT22;10739;52.198;20.908;2023-09-18T10:37:36;27.30;95.30
21163;DHT22;10739;52.198;20.908;2023-09-18T10:40:06;27.20;95.00
21163;DHT22;10739;52.198;20.908;2023-09-18T10:42:39;27.00;95.20
21163;DHT22;10739;52.198;20.908;2023-09-18T10:45:09;27.00;95.30
21163;DHT22;10739;52.198;20.908;2023-09-18T10:47:39;27.00;95.40
21163;DHT22;10739;52.198;20.908;2023-09-18T10:50:08;27.00;95.50
21163;DHT22;10739;52.198;20.908;2023-09-18T10:52:36;27.00;95.30
21163;DHT22;10739;52.198;20.908;2023-09-18T10:55:12;27.00;95.20
21163;DHT22;10739;52.198;20.908;2023-09-18T10:57:53;27.00;95.10
21163;DHT22;10739;52.198;20.908;2023-09-18T11:00:29;26.90;95.10
21163;DHT22;10739;52.198;20.908;2023-09-18T11:03:17;26.80;95.10
21163;DHT22;10739;52.198;20.908;2023-09-18T11:05:45;26.80;95.60
21163;DHT22;10739;52.198;20.908;2023-09-18T11:08:28;26.90;95.60
21163;DHT22;10739;52.198;20.908;2023-09-18T11:11:08;27.00;95.20
21163;DHT22;10739;52.198;20.908;2023-09-18T11:13:47;27.20;94.50
21163;DHT22;10739;52.198;20.908;2023-09-18T11:19:07;27.30;94.40
21163;DHT22;10739;52.198;20.908;2023-09-18T11:21:35;27.50;94.20
21163;DHT22;10739;52.198;20.908;2023-09-18T11:24:15;27.50;94.10
21163;DHT22;10739;52.198;20.908;2023-09-18T11:26:45;27.40;94.30
21163;DHT22;10739;52.198;20.908;2023-09-18T11:29:21;27.50;94.10
21163;DHT22;10739;52.198;20.908;2023-09-18T11:31:52;27.50;93.50
21163;DHT22;10739;52.198;20.908;2023-09-18T11:34:25;27.40;93.20
21163;DHT22;10739;52.198;20.908;2023-09-18T11:37:00;27.30;93.40
21163;DHT22;10739;52.198;20.908;2023-09-18T11:39:45;27.20;93.70
21163;DHT22;10739;52.198;20.908;2023-09-18T11:42:13;27.20;93.40
21163;DHT22;10739;52.198;20.908;2023-09-18T11:44:44;27.20;93.70
21163;DHT22;10739;52.198;20.908;2023-09-18T11:47:18;27.30;93.50
21163;DHT22;10739;52.198;20.908;2023-09-18T11:49:54;27.20;93.40
21163;DHT22;10739;52.198;20.908;2023-09-18T11:52:26;27.20;93.40
21163;DHT22;10739;52.198;20.908;2023-09-18T11:54:57;27.10;93.00
21163;DHT22;10739;52.198;20.908;2023-09-18T11:57:25;27.00;92.90
21163;DHT22;10739;52.198;20.908;2023-09-18T11:59:53;27.00;93.20
21163;DHT22;10739;52.198;20.908;2023-09-18T12:04:54;27.10;93.60
21163;DHT22;10739;52.198;20.908;2023-09-18T12:07:21;27.20;93.10
21163;DHT22;10739;52.198;20.908;2023-09-18T12:09:48;27.30;92.70
21163;DHT22;10739;52.198;20.908;2023-09-18T12:12:16;27.30;92.90
21163;DHT22;10739;52.198;20.908;2023-09-18T12:14:43;27.40;92.70
21163;DHT22;10739;52.198;20.908;2023-09-18T12:17:14;27.40;92.40
21163;DHT22;10739;52.198;20.908;2023-09-18T12:19:55;27.50;92.40
21163;DHT22;10739;52.198;20.908;2023-09-18T12:22:28;27.30;92.60
21163;DHT22;10739;52.198;20.908;2023-09-18T12:25:11;27.00;92.80
21163;DHT22;10739;52.198;20.908;2023-09-18T12:27:38;27.10;93.00
21163;DHT22;10739;52.198;20.908;2023-09-18T12:30:06;27.10;92.90
21163;DHT22;10739;52.198;20.908;2023-09-18T12:32:36;27.10;92.30
21163;DHT22;10739;52.198;20.908;2023-09-18T12:35:04;27.20;92.60
21163;DHT22;10739;52.198;20.908;2023-09-18T12:37:34;27.10;92.40
21163;DHT22;10739;52.198;20.908;2023-09-18T12:40:01;27.00;92.40
21163;DHT22;10739;52.198;20.908;2023-09-18T12:42:33;27.10;92.50
21163;DHT22;10739;52.198;20.908;2023-09-18T12:44:59;27.10;93.00
21163;DHT22;10739;52.198;20.908;2023-09-18T12:47:26;27.10;92.50
21163;DHT22;10739;52.198;20.908;2023-09-18T12:49:52;27.20;92.50
21163;DHT22;10739;52.198;20.908;2023-09-18T12:52:22;27.30;92.60
21163;DHT22;10739;52.198;20.908;2023-09-18T12:54:48;27.30;92.60
21163;DHT22;10739;52.198;20.908;2023-09-18T12:57:20;27.30;92.30
21163;DHT22;10739;52.198;20.908;2023-09-18T12:59:46;27.40;92.60
21163;DHT22;10739;52.198;20.908;2023-09-18T13:02:19;27.40;92.40
21163;DHT22;10739;52.198;20.908;2023-09-18T13:04:56;27.40;92.50
21163;DHT22;10739;52.198;20.908;2023-09-18T13:07:23;27.40;92.60
21163;DHT22;10739;52.198;20.908;2023-09-18T13:09:59;27.50;92.40
21163;DHT22;10739;52.198;20.908;2023-09-18T13:12:39;27.60;92.40
21163;DHT22;10739;52.198;20.908;2023-09-18T13:15:06;27.70;92.30
21163;DHT22;10739;52.198;20.908;2023-09-18T13:17:41;27.60;92.30
21163;DHT22;10739;52.198;20.908;2023-09-18T13:20:14;27.60;92.70
21163;DHT22;10739;52.198;20.908;2023-09-18T13:22:42;27.50;92.00
21163;DHT22;10739;52.198;20.908;2023-09-18T13:25:19;27.40;92.10
21163;DHT22;10739;52.198;20.908;2023-09-18T13:27:50;27.30;92.20
21163;DHT22;10739;52.198;20.908;2023-09-18T13:30:18;27.40;91.90
21163;DHT22;10739;52.198;20.908;2023-09-18T13:32:51;27.40;91.90
21163;DHT22;10739;52.198;20.908;2023-09-18T13:35:36;27.40;92.00
21163;DHT22;10739;52.198;20.908;2023-09-18T13:38:07;27.50;92.60
21163;DHT22;10739;52.198;20.908;2023-09-18T13:40:37;27.40;92.30
21163;DHT22;10739;52.198;20.908;2023-09-18T13:43:08;27.50;92.20
21163;DHT22;10739;52.198;20.908;2023-09-18T13:45:38;27.70;91.40
21163;DHT22;10739;52.198;20.908;2023-09-18T13:48:07;27.70;91.50
21163;DHT22;10739;52.198;20.908;2023-09-18T13:50:36;27.90;91.40
21163;DHT22;10739;52.198;20.908;2023-09-18T13:53:04;28.10;90.90
21163;DHT22;10739;52.198;20.908;2023-09-18T13:55:32;28.60;90.40
21163;DHT22;10739;52.198;20.908;2023-09-18T13:57:59;29.10;90.00
21163;DHT22;10739;52.198;20.908;2023-09-18T14:00:25;29.70;88.70
21163;DHT22;10739;52.198;20.908;2023-09-18T14:02:52;29.80;87.20
21163;DHT22;10739;52.198;20.908;2023-09-18T14:05:20;29.30;87.10
21163;DHT22;10739;52.198;20.908;2023-09-18T14:07:46;28.80;87.90
21163;DHT22;10739;52.198;20.908;2023-09-18T14:10:13;29.30;87.60
21163;DHT22;10739;52.198;20.908;2023-09-18T14:12:41;29.00;87.20
21163;DHT22;10739;52.198;20.908;2023-09-18T14:15:08;28.50;88.80
21163;DHT22;10739;52.198;20.908;2023-09-18T14:17:35;28.30;89.20
21163;DHT22;10739;52.198;20.908;2023-09-18T14:20:04;28.30;89.40
21163;DHT22;10739;52.198;20.908;2023-09-18T14:22:35;28.30;90.10
21163;DHT22;10739;52.198;20.908;2023-09-18T14:25:02;28.40;90.10
21163;DHT22;10739;52.198;20.908;2023-09-18T14:27:32;28.40;90.90
21163;DHT22;10739;52.198;20.908;2023-09-18T14:29:58;28.20;90.90
21163;DHT22;10739;52.198;20.908;2023-09-18T14:32:24;28.00;91.30
21163;DHT22;10739;52.198;20.908;2023-09-18T14:34:52;27.80;91.50
21163;DHT22;10739;52.198;20.908;2023-09-18T14:37:18;27.70;91.60
21163;DHT22;10739;52.198;20.908;2023-09-18T14:39:44;27.60;91.70
21163;DHT22;10739;52.198;20.908;2023-09-18T14:42:11;27.60;92.00
21163;DHT22;10739;52.198;20.908;2023-09-18T14:44:38;27.50;91.50
21163;DHT22;10739;52.198;20.908;2023-09-18T14:47:11;27.50;91.40
21163;DHT22;10739;52.198;20.908;2023-09-18T14:49:38;27.40;91.30
21163;DHT22;10739;52.198;20.908;2023-09-18T14:52:15;27.40;91.80
21163;DHT22;10739;52.198;20.908;2023-09-18T14:54:44;27.40;91.90
21163;DHT22;10739;52.198;20.908;2023-09-18T14:57:11;27.30;92.00
21163;DHT22;10739;52.198;20.908;2023-09-18T14:59:37;27.40;92.20
21163;DHT22;10739;52.198;20.908;2023-09-18T15:02:04;27.30;92.30
21163;DHT22;10739;52.198;20.908;2023-09-18T15:04:32;27.20;92.30
21163;DHT22;10739;52.198;20.908;2023-09-18T15:07:00;27.20;92.50
21163;DHT22;10739;52.198;20.908;2023-09-18T15:09:26;27.20;92.60
21163;DHT22;10739;52.198;20.908;2023-09-18T15:11:53;27.20;92.80
21163;DHT22;10739;52.198;20.908;2023-09-18T15:14:19;27.10;92.70
21163;DHT22;10739;52.198;20.908;2023-09-18T15:16:45;27.10;92.80
21163;DHT22;10739;52.198;20.908;2023-09-18T15:19:12;27.00;93.00
21163;DHT22;10739;52.198;20.908;2023-09-18T15:21:40;26.90;93.10
21163;DHT22;10739;52.198;20.908;2023-09-18T15:24:07;26.90;93.30
21163;DHT22;10739;52.198;20.908;2023-09-18T15:26:33;26.80;93.40
21163;DHT22;10739;52.198;20.908;2023-09-18T15:28:59;26.70;93.50
21163;DHT22;10739;52.198;20.908;2023-09-18T15:31:26;26.60;93.70
21163;DHT22;10739;52.198;20.908;2023-09-18T15:33:53;26.50;93.90